Aegean Princess — ZDID9 — position and weather

sailwx.info

Track history (hours):
 
Tides and Currents Weather Stations Pressure Air Temp Water Temp Dewpoint Dewpoint Depression Visibility Wind Speed Wind Dir Waves Ship Positions

Aegean Princess

Last reported at 2015-Feb-28 06:17 UTC. Time now 2015-Feb-28 13:56 UTC.
Position N 36°09' W 005°22'.

Length 100 m; draft 6.2 m.

Type: Ship. MMSI: 236111476.

Date/timePositionNaut miles runAvg speedWind from/ knotsBaromVisibWave heightAir tempDewpointWater temp
2015-Feb-28 06:17N 36°09' W 005°22'0 0.0
2015-Feb-28 05:08N 36°09' W 005°22'0 0.0
2015-Feb-28 04:20N 36°09' W 005°22'0 0.0
2015-Feb-27 16:23N 36°09' W 005°22'0 0.0
2015-Feb-27 10:25N 36°09' W 005°22'0 0.0
2015-Feb-27 09:31N 36°09' W 005°22'0 0.0
2015-Feb-27 05:31N 36°09' W 005°22'0 0.0
2015-Feb-27 04:16N 36°09' W 005°22'0 0.0
2015-Feb-27 02:19N 36°09' W 005°22'0 0.0
2015-Feb-27 01:13N 36°09' W 005°22'0 0.0
2015-Feb-26 20:16N 36°09' W 005°22'0 0.0
2015-Feb-26 19:19N 36°09' W 005°22'0 0.0
2015-Feb-26 17:25N 36°09' W 005°22'0 0.0
2015-Feb-26 15:31N 36°09' W 005°22'0 0.0
2015-Feb-26 09:25N 36°09' W 005°22'0 0.1
2015-Feb-26 08:07N 36°09' W 005°22'0 0.0
2015-Feb-26 06:21N 36°09' W 005°22'0 0.0
2015-Feb-26 05:18N 36°09' W 005°22'0 0.1
2015-Feb-26 04:24N 36°09' W 005°22'0 0.0
2015-Feb-26 03:12N 36°09' W 005°22'0 0.0
2015-Feb-26 02:24N 36°09' W 005°22'0 0.0
2015-Feb-26 01:27N 36°09' W 005°22'0 0.0
2015-Feb-26 00:18N 36°09' W 005°22'0 0.0
2015-Feb-25 23:15N 36°09' W 005°22'0 0.0
2015-Feb-25 17:24N 36°09' W 005°22'0 0.0
2015-Feb-25 16:06N 36°09' W 005°22'0 0.1
2015-Feb-25 15:31N 36°09' W 005°22'1 0.8
2015-Feb-25 14:33N 36°09' W 005°23'0 0.1
2015-Feb-25 13:33N 36°09' W 005°23'3 3.4
2015-Feb-25 12:33N 36°05' W 005°22'10 9.9
2015-Feb-25 11:33N 35°57' W 005°27'  
2015-Feb-22 14:04N 35°57' W 005°31'4 7.5
2015-Feb-22 13:33N 35°59' W 005°27'7 6.8
2015-Feb-22 12:33N 36°03' W 005°21'4 3.9
2015-Feb-22 11:32N 36°07' W 005°18'0 0.0
2015-Feb-22 10:20N 36°07' W 005°18'0 0.0
2015-Feb-22 09:29N 36°07' W 005°18'0 0.0
2015-Feb-22 08:32N 36°07' W 005°18'0 0.1
2015-Feb-22 07:32N 36°07' W 005°18'0 0.0
2015-Feb-22 06:32N 36°07' W 005°18'0 0.0
2015-Feb-22 05:32N 36°07' W 005°18'0 0.1
2015-Feb-22 04:30N 36°07' W 005°18'3 2.9
2015-Feb-22 03:32N 36°07' W 005°22'0 0.0
2015-Feb-22 02:32N 36°07' W 005°22'0 0.0
2015-Feb-22 01:29N 36°07' W 005°22'0 0.0
2015-Feb-22 00:31N 36°07' W 005°22'1 0.6
2015-Feb-21 23:33N 36°07' W 005°22'0 0.1
2015-Feb-21 22:33N 36°07' W 005°22'0 0.1
2015-Feb-21 21:12N 36°07' W 005°22'0 0.1
2015-Feb-21 20:18N 36°07' W 005°22'0 0.0
2015-Feb-21 19:30N 36°07' W 005°22'0 0.1
2015-Feb-21 17:30N 36°08' W 005°22'0 0.0
2015-Feb-21 16:33N 36°08' W 005°22'0 0.1
2015-Feb-21 14:32N 36°07' W 005°22'2 0.4
2015-Feb-21 10:27N 36°09' W 005°23'2 1.9
2015-Feb-21 09:28N 36°07' W 005°22'0 0.1
2015-Feb-21 08:31N 36°07' W 005°22'0 0.0
2015-Feb-21 07:25N 36°07' W 005°22'1 0.6
2015-Feb-21 06:33N 36°08' W 005°23'0 0.0
2015-Feb-21 05:27N 36°08' W 005°23'0 0.0
2015-Feb-21 04:33N 36°08' W 005°23'0 0.0
2015-Feb-21 00:30N 36°08' W 005°23'0 0.0
2015-Feb-20 23:33N 36°08' W 005°23'0 0.0
2015-Feb-20 22:33N 36°08' W 005°23'0 0.0
2015-Feb-20 21:33N 36°08' W 005°23'2 0.9
2015-Feb-20 19:32N 36°09' W 005°22'0 0.0
2015-Feb-20 18:14N 36°09' W 005°22'0 0.0
2015-Feb-20 17:32N 36°09' W 005°22'0 0.0
2015-Feb-20 14:20N 36°09' W 005°22'0 0.0
2015-Feb-20 12:32N 36°09' W 005°22'3 1.4
2015-Feb-20 10:33N 36°07' W 005°22'5 5.0
2015-Feb-20 09:33N 36°02' W 005°20'6 6.1
2015-Feb-20 08:33N 35°58' W 005°25'9 6.3
2015-Feb-20 07:09N 35°52' W 005°34'0 0.0
2015-Feb-20 05:27N 35°52' W 005°34'0 0.2
2015-Feb-20 04:33N 35°52' W 005°34'  
Track history (hours):
 
Tides and Currents Weather Stations Pressure Air Temp Water Temp Dewpoint Dewpoint Depression Visibility Wind Speed Wind Dir Waves Ship Positions

Aegean Princess

Last reported at 2015-Feb-28 06:17 UTC. Time now 2015-Feb-28 13:56 UTC.
Position N 36°09' W 005°22'.

Length 100 m; draft 6.2 m.

Type: Ship. MMSI: 236111476.

Date/timePositionNaut miles runAvg speedWind from/ knotsBaromVisibWave heightAir tempDewpointWater temp
2015-Feb-28 06:17N 36°09' W 005°22'0 0.0
2015-Feb-28 05:08N 36°09' W 005°22'0 0.0
2015-Feb-28 04:20N 36°09' W 005°22'0 0.0
2015-Feb-27 16:23N 36°09' W 005°22'0 0.0
2015-Feb-27 10:25N 36°09' W 005°22'0 0.0
2015-Feb-27 09:31N 36°09' W 005°22'0 0.0
2015-Feb-27 05:31N 36°09' W 005°22'0 0.0
2015-Feb-27 04:16N 36°09' W 005°22'0 0.0
2015-Feb-27 02:19N 36°09' W 005°22'0 0.0
2015-Feb-27 01:13N 36°09' W 005°22'0 0.0
2015-Feb-26 20:16N 36°09' W 005°22'0 0.0
2015-Feb-26 19:19N 36°09' W 005°22'0 0.0
2015-Feb-26 17:25N 36°09' W 005°22'0 0.0
2015-Feb-26 15:31N 36°09' W 005°22'0 0.0
2015-Feb-26 09:25N 36°09' W 005°22'0 0.1
2015-Feb-26 08:07N 36°09' W 005°22'0 0.0
2015-Feb-26 06:21N 36°09' W 005°22'0 0.0
2015-Feb-26 05:18N 36°09' W 005°22'0 0.1
2015-Feb-26 04:24N 36°09' W 005°22'0 0.0
2015-Feb-26 03:12N 36°09' W 005°22'0 0.0
2015-Feb-26 02:24N 36°09' W 005°22'0 0.0
2015-Feb-26 01:27N 36°09' W 005°22'0 0.0
2015-Feb-26 00:18N 36°09' W 005°22'0 0.0
2015-Feb-25 23:15N 36°09' W 005°22'0 0.0
2015-Feb-25 17:24N 36°09' W 005°22'0 0.0
2015-Feb-25 16:06N 36°09' W 005°22'0 0.1
2015-Feb-25 15:31N 36°09' W 005°22'1 0.8
2015-Feb-25 14:33N 36°09' W 005°23'0 0.1
2015-Feb-25 13:33N 36°09' W 005°23'3 3.4
2015-Feb-25 12:33N 36°05' W 005°22'10 9.9
2015-Feb-25 11:33N 35°57' W 005°27'  
2015-Feb-22 14:04N 35°57' W 005°31'4 7.5
2015-Feb-22 13:33N 35°59' W 005°27'7 6.8
2015-Feb-22 12:33N 36°03' W 005°21'4 3.9
2015-Feb-22 11:32N 36°07' W 005°18'0 0.0
2015-Feb-22 10:20N 36°07' W 005°18'0 0.0
2015-Feb-22 09:29N 36°07' W 005°18'0 0.0
2015-Feb-22 08:32N 36°07' W 005°18'0 0.1
2015-Feb-22 07:32N 36°07' W 005°18'0 0.0
2015-Feb-22 06:32N 36°07' W 005°18'0 0.0
2015-Feb-22 05:32N 36°07' W 005°18'0 0.1
2015-Feb-22 04:30N 36°07' W 005°18'3 2.9
2015-Feb-22 03:32N 36°07' W 005°22'0 0.0
2015-Feb-22 02:32N 36°07' W 005°22'0 0.0
2015-Feb-22 01:29N 36°07' W 005°22'0 0.0
2015-Feb-22 00:31N 36°07' W 005°22'1 0.6
2015-Feb-21 23:33N 36°07' W 005°22'0 0.1
2015-Feb-21 22:33N 36°07' W 005°22'0 0.1
2015-Feb-21 21:12N 36°07' W 005°22'0 0.1
2015-Feb-21 20:18N 36°07' W 005°22'0 0.0
2015-Feb-21 19:30N 36°07' W 005°22'0 0.1
2015-Feb-21 17:30N 36°08' W 005°22'0 0.0
2015-Feb-21 16:33N 36°08' W 005°22'0 0.1
2015-Feb-21 14:32N 36°07' W 005°22'2 0.4
2015-Feb-21 10:27N 36°09' W 005°23'2 1.9
2015-Feb-21 09:28N 36°07' W 005°22'0 0.1
2015-Feb-21 08:31N 36°07' W 005°22'0 0.0
2015-Feb-21 07:25N 36°07' W 005°22'1 0.6
2015-Feb-21 06:33N 36°08' W 005°23'0 0.0
2015-Feb-21 05:27N 36°08' W 005°23'0 0.0
2015-Feb-21 04:33N 36°08' W 005°23'0 0.0
2015-Feb-21 00:30N 36°08' W 005°23'0 0.0
2015-Feb-20 23:33N 36°08' W 005°23'0 0.0
2015-Feb-20 22:33N 36°08' W 005°23'0 0.0
2015-Feb-20 21:33N 36°08' W 005°23'2 0.9
2015-Feb-20 19:32N 36°09' W 005°22'0 0.0
2015-Feb-20 18:14N 36°09' W 005°22'0 0.0
2015-Feb-20 17:32N 36°09' W 005°22'0 0.0
2015-Feb-20 14:20N 36°09' W 005°22'0 0.0
2015-Feb-20 12:32N 36°09' W 005°22'3 1.4
2015-Feb-20 10:33N 36°07' W 005°22'5 5.0
2015-Feb-20 09:33N 36°02' W 005°20'6 6.1
2015-Feb-20 08:33N 35°58' W 005°25'9 6.3
2015-Feb-20 07:09N 35°52' W 005°34'0 0.0
2015-Feb-20 05:27N 35°52' W 005°34'0 0.2
2015-Feb-20 04:33N 35°52' W 005°34'  

Dump ship's entire track history